Terminal Aerodrome Forecast
Issued by NWS Upton, NY

Home | Current Version | Previous Version | Text Only | Print | Product List | Glossary On
Versions: 1 2 3 4 5 6 7 8 9 10 11 12 13 14 15 16 17 18 19 20 21 22 23 24 25 26 27 28 29 30
384
FTUS41 KOKX 230528
TAFEWR
TAF
KEWR 230528Z 2306/2412 14004KT P6SM FEW008 FEW040 BKN250
     FM230900 11003KT 5SM BR SCT008 SCT040 BKN250
     FM231400 13008KT P6SM SCT008 BKN040
     FM231900 14013KT P6SM SCT008 BKN035
     FM240000 15014KT 6SM -DZ BR SCT008 BKN025
     FM240700 16014G20KT 5SM SHRA BR SCT008 BKN015=

USA.gov is the U.S. government's official web portal to all federal, state and local government web resources and services.